Opal Express — V7KB8 — position and weather

sailwx.info

Track history (hours):
 
Tides and Currents Weather Stations Pressure Air Temp Water Temp Dewpoint Dewpoint Depression Visibility Wind Speed Wind Dir Waves Ship Positions

Opal Express

Last reported at 2016-Feb-06 21:18 UTC. Time now 2016-Feb-12 14:10 UTC.
Position N 40°13' W 032°43'.

Length 179 m; draft 7.8 m.

Type: Tanker. MMSI: 538002500.

Date/timePositionNaut miles runAvg speedWind from/ knotsBaromVisibWave heightAir tempDewpointWater temp
2016-Feb-06 21:18N 40°13' W 032°43'2413.4
2016-Feb-06 19:28N 40°23' W 032°14'1713.5
2016-Feb-06 18:14N 40°30' W 031°54'  
2016-Feb-02 01:33N 50°27' W 001°11'1110.5
2016-Feb-02 00:33N 50°35' W 000°60'8 8.2
2016-Feb-01 23:33N 50°43' W 000°58'1313.3
2016-Feb-01 22:33N 50°47' W 001°18'4 0.2
2016-Feb-01 00:34N 50°51' W 001°20'6 5.6
2016-Jan-31 23:33N 50°46' W 001°15'1010.1
2016-Jan-31 22:33N 50°43' W 000°59'5 4.6
2016-Jan-31 21:33N 50°39' W 001°02'1 1.3
2016-Jan-31 20:32N 50°38' W 001°04'0 0.2
2016-Jan-31 19:32N 50°38' W 001°04'0 0.1
2016-Jan-31 18:32N 50°38' W 001°04'0 0.1
2016-Jan-31 17:32N 50°38' W 001°04'0 0.1
2016-Jan-31 16:32N 50°38' W 001°04'0 0.1
2016-Jan-31 15:32N 50°38' W 001°04'0 0.0
2016-Jan-31 14:32N 50°38' W 001°04'0 0.0
2016-Jan-31 13:32N 50°38' W 001°04'0 0.0
2016-Jan-31 12:32N 50°38' W 001°04'0 0.0
2016-Jan-31 11:32N 50°38' W 001°04'0 0.0
2016-Jan-31 10:14N 50°38' W 001°04'0 0.0
2016-Jan-31 09:32N 50°38' W 001°04'0 0.2
2016-Jan-31 08:32N 50°38' W 001°04'0 0.1
2016-Jan-31 07:32N 50°38' W 001°04'0 0.0
2016-Jan-31 06:32N 50°38' W 001°04'0 0.0
2016-Jan-31 05:32N 50°38' W 001°04'0 0.0
2016-Jan-31 04:32N 50°38' W 001°04'0 0.2
2016-Jan-31 03:32N 50°38' W 001°04'0 0.1
2016-Jan-31 02:29N 50°38' W 001°04'0 0.0
2016-Jan-31 01:32N 50°38' W 001°04'0 0.0
2016-Jan-31 00:32N 50°38' W 001°04'0 0.0
2016-Jan-30 23:32N 50°38' W 001°04'0 0.0
2016-Jan-30 22:32N 50°38' W 001°04'0 0.0
2016-Jan-30 21:29N 50°38' W 001°04'0 0.1
2016-Jan-30 20:32N 50°38' W 001°04'0 0.3
2016-Jan-30 19:32N 50°38' W 001°05'0 0.0
2016-Jan-30 18:32N 50°38' W 001°05'0 0.0
2016-Jan-30 17:32N 50°38' W 001°05'0 0.0
2016-Jan-30 16:32N 50°38' W 001°05'0 0.3
2016-Jan-30 15:32N 50°38' W 001°04'0 0.2
2016-Jan-30 14:32N 50°38' W 001°04'0 0.1
2016-Jan-30 13:32N 50°38' W 001°04'0 0.0
2016-Jan-30 12:32N 50°38' W 001°04'0 0.0
2016-Jan-30 11:32N 50°38' W 001°04'0 0.0
2016-Jan-30 10:32N 50°38' W 001°04'0 0.0
2016-Jan-30 09:32N 50°38' W 001°04'3 3.0
2016-Jan-30 08:33N 50°35' W 001°05'4 4.0
2016-Jan-30 07:33N 50°31' W 001°02'3 3.0
2016-Jan-30 06:33N 50°34' W 000°60'1 0.7
2016-Jan-30 05:34N 50°35' W 001°00'2 2.4
2016-Jan-30 04:33N 50°36' W 000°57'1 1.4
2016-Jan-30 03:33N 50°35' W 000°58'2 1.9
2016-Jan-30 02:33N 50°36' W 000°56'1 1.0
2016-Jan-30 01:33N 50°35' W 000°55'1 1.4
2016-Jan-30 00:33N 50°35' W 000°57'2 1.6
2016-Jan-29 23:33N 50°36' W 000°55'1 0.8
2016-Jan-29 22:33N 50°35' W 000°55'3 3.2
2016-Jan-29 21:33N 50°39' W 000°56'9 8.6
2016-Jan-29 20:33N 50°45' W 001°06'8 8.4
2016-Jan-29 19:33N 50°49' W 001°17'2 0.4
2016-Jan-29 13:23N 50°50' W 001°20'0 0.0
2016-Jan-29 11:29N 50°50' W 001°20'0 0.0
2016-Jan-29 09:26N 50°50' W 001°20'0 0.0
2016-Jan-29 07:23N 50°50' W 001°20'0 0.0
2016-Jan-29 02:29N 50°50' W 001°20'0 0.0
2016-Jan-28 12:26N 50°50' W 001°20'0 0.0
2016-Jan-28 11:32N 50°50' W 001°20'0 0.0
2016-Jan-28 09:29N 50°50' W 001°20'0 0.0
2016-Jan-28 08:29N 50°50' W 001°20'0 0.0
2016-Jan-28 07:29N 50°50' W 001°20'0 0.0
2016-Jan-28 06:26N 50°50' W 001°20'0 0.0
2016-Jan-28 05:32N 50°50' W 001°20'0 0.0
2016-Jan-28 04:17N 50°50' W 001°20'0 0.0
2016-Jan-28 03:23N 50°50' W 001°20'0 0.0
2016-Jan-28 02:26N 50°50' W 001°20'0 0.0
2016-Jan-28 01:32N 50°50' W 001°20'  
Track history (hours):
 
Tides and Currents Weather Stations Pressure Air Temp Water Temp Dewpoint Dewpoint Depression Visibility Wind Speed Wind Dir Waves Ship Positions

Opal Express

Last reported at 2016-Feb-06 21:18 UTC. Time now 2016-Feb-12 14:10 UTC.
Position N 40°13' W 032°43'.

Length 179 m; draft 7.8 m.

Type: Tanker. MMSI: 538002500.

Date/timePositionNaut miles runAvg speedWind from/ knotsBaromVisibWave heightAir tempDewpointWater temp
2016-Feb-06 21:18N 40°13' W 032°43'2413.4
2016-Feb-06 19:28N 40°23' W 032°14'1713.5
2016-Feb-06 18:14N 40°30' W 031°54'  
2016-Feb-02 01:33N 50°27' W 001°11'1110.5
2016-Feb-02 00:33N 50°35' W 000°60'8 8.2
2016-Feb-01 23:33N 50°43' W 000°58'1313.3
2016-Feb-01 22:33N 50°47' W 001°18'4 0.2
2016-Feb-01 00:34N 50°51' W 001°20'6 5.6
2016-Jan-31 23:33N 50°46' W 001°15'1010.1
2016-Jan-31 22:33N 50°43' W 000°59'5 4.6
2016-Jan-31 21:33N 50°39' W 001°02'1 1.3
2016-Jan-31 20:32N 50°38' W 001°04'0 0.2
2016-Jan-31 19:32N 50°38' W 001°04'0 0.1
2016-Jan-31 18:32N 50°38' W 001°04'0 0.1
2016-Jan-31 17:32N 50°38' W 001°04'0 0.1
2016-Jan-31 16:32N 50°38' W 001°04'0 0.1
2016-Jan-31 15:32N 50°38' W 001°04'0 0.0
2016-Jan-31 14:32N 50°38' W 001°04'0 0.0
2016-Jan-31 13:32N 50°38' W 001°04'0 0.0
2016-Jan-31 12:32N 50°38' W 001°04'0 0.0
2016-Jan-31 11:32N 50°38' W 001°04'0 0.0
2016-Jan-31 10:14N 50°38' W 001°04'0 0.0
2016-Jan-31 09:32N 50°38' W 001°04'0 0.2
2016-Jan-31 08:32N 50°38' W 001°04'0 0.1
2016-Jan-31 07:32N 50°38' W 001°04'0 0.0
2016-Jan-31 06:32N 50°38' W 001°04'0 0.0
2016-Jan-31 05:32N 50°38' W 001°04'0 0.0
2016-Jan-31 04:32N 50°38' W 001°04'0 0.2
2016-Jan-31 03:32N 50°38' W 001°04'0 0.1
2016-Jan-31 02:29N 50°38' W 001°04'0 0.0
2016-Jan-31 01:32N 50°38' W 001°04'0 0.0
2016-Jan-31 00:32N 50°38' W 001°04'0 0.0
2016-Jan-30 23:32N 50°38' W 001°04'0 0.0
2016-Jan-30 22:32N 50°38' W 001°04'0 0.0
2016-Jan-30 21:29N 50°38' W 001°04'0 0.1
2016-Jan-30 20:32N 50°38' W 001°04'0 0.3
2016-Jan-30 19:32N 50°38' W 001°05'0 0.0
2016-Jan-30 18:32N 50°38' W 001°05'0 0.0
2016-Jan-30 17:32N 50°38' W 001°05'0 0.0
2016-Jan-30 16:32N 50°38' W 001°05'0 0.3
2016-Jan-30 15:32N 50°38' W 001°04'0 0.2
2016-Jan-30 14:32N 50°38' W 001°04'0 0.1
2016-Jan-30 13:32N 50°38' W 001°04'0 0.0
2016-Jan-30 12:32N 50°38' W 001°04'0 0.0
2016-Jan-30 11:32N 50°38' W 001°04'0 0.0
2016-Jan-30 10:32N 50°38' W 001°04'0 0.0
2016-Jan-30 09:32N 50°38' W 001°04'3 3.0
2016-Jan-30 08:33N 50°35' W 001°05'4 4.0
2016-Jan-30 07:33N 50°31' W 001°02'3 3.0
2016-Jan-30 06:33N 50°34' W 000°60'1 0.7
2016-Jan-30 05:34N 50°35' W 001°00'2 2.4
2016-Jan-30 04:33N 50°36' W 000°57'1 1.4
2016-Jan-30 03:33N 50°35' W 000°58'2 1.9
2016-Jan-30 02:33N 50°36' W 000°56'1 1.0
2016-Jan-30 01:33N 50°35' W 000°55'1 1.4
2016-Jan-30 00:33N 50°35' W 000°57'2 1.6
2016-Jan-29 23:33N 50°36' W 000°55'1 0.8
2016-Jan-29 22:33N 50°35' W 000°55'3 3.2
2016-Jan-29 21:33N 50°39' W 000°56'9 8.6
2016-Jan-29 20:33N 50°45' W 001°06'8 8.4
2016-Jan-29 19:33N 50°49' W 001°17'2 0.4
2016-Jan-29 13:23N 50°50' W 001°20'0 0.0
2016-Jan-29 11:29N 50°50' W 001°20'0 0.0
2016-Jan-29 09:26N 50°50' W 001°20'0 0.0
2016-Jan-29 07:23N 50°50' W 001°20'0 0.0
2016-Jan-29 02:29N 50°50' W 001°20'0 0.0
2016-Jan-28 12:26N 50°50' W 001°20'0 0.0
2016-Jan-28 11:32N 50°50' W 001°20'0 0.0
2016-Jan-28 09:29N 50°50' W 001°20'0 0.0
2016-Jan-28 08:29N 50°50' W 001°20'0 0.0
2016-Jan-28 07:29N 50°50' W 001°20'0 0.0
2016-Jan-28 06:26N 50°50' W 001°20'0 0.0
2016-Jan-28 05:32N 50°50' W 001°20'0 0.0
2016-Jan-28 04:17N 50°50' W 001°20'0 0.0
2016-Jan-28 03:23N 50°50' W 001°20'0 0.0
2016-Jan-28 02:26N 50°50' W 001°20'0 0.0
2016-Jan-28 01:32N 50°50' W 001°20'  

Dump ship's entire track history